createdAt,value
2019-05-14T00:01:12.696Z,8.96
2019-05-14T00:03:43.766Z,8.87
2019-05-14T00:06:15.603Z,8.85
2019-05-14T00:08:46.668Z,8.80
2019-05-14T00:11:21.924Z,8.77
2019-05-14T00:13:53.096Z,8.80
2019-05-14T00:16:26.782Z,8.85
2019-05-14T00:18:57.792Z,8.80
2019-05-14T00:21:28.917Z,8.85
2019-05-14T00:24:01.856Z,8.84
2019-05-14T00:26:33.087Z,8.83
2019-05-14T00:29:04.265Z,8.69
2019-05-14T00:31:35.531Z,8.57
2019-05-14T00:34:06.596Z,8.73
2019-05-14T00:36:37.640Z,8.68
2019-05-14T00:39:11.039Z,8.63
2019-05-14T00:41:44.613Z,8.52
2019-05-14T00:44:21.377Z,8.55
2019-05-14T00:46:51.666Z,8.57
2019-05-14T00:49:25.885Z,8.67
2019-05-14T00:51:56.962Z,8.53
2019-05-14T00:54:32.166Z,8.58
2019-05-14T00:57:03.252Z,8.66
2019-05-14T00:59:37.266Z,8.74
2019-05-14T01:02:11.406Z,8.62
2019-05-14T01:04:43.247Z,8.67
2019-05-14T01:07:17.281Z,8.81
2019-05-14T01:09:52.099Z,8.79
2019-05-14T01:12:22.643Z,8.61
2019-05-14T01:15:07.204Z,8.67
2019-05-14T01:17:28.065Z,8.58
2019-05-14T01:19:59.239Z,8.68
2019-05-14T01:22:31.645Z,8.65
2019-05-14T01:25:02.859Z,8.67
2019-05-14T01:27:34.413Z,8.59
2019-05-14T01:30:12.498Z,8.58
2019-05-14T01:32:44.587Z,8.60
2019-05-14T01:35:15.649Z,8.52
2019-05-14T01:37:46.785Z,8.58
2019-05-14T01:40:17.863Z,8.50
2019-05-14T01:42:48.975Z,8.49
2019-05-14T01:45:25.144Z,8.60
2019-05-14T01:47:52.838Z,8.55
2019-05-14T01:50:41.422Z,8.48
2019-05-14T01:53:12.667Z,8.43
2019-05-14T01:55:43.796Z,8.35
2019-05-14T01:58:15.039Z,8.33
2019-05-14T02:00:48.825Z,8.27
2019-05-14T02:03:22.263Z,8.22
2019-05-14T02:05:53.299Z,8.15
2019-05-14T02:08:25.794Z,8.08
2019-05-14T02:10:56.841Z,8.09
2019-05-14T02:13:28.285Z,7.93
2019-05-14T02:16:01.462Z,7.93
2019-05-14T02:18:33.075Z,7.94
2019-05-14T02:21:04.114Z,7.92
2019-05-14T02:23:35.206Z,7.88
2019-05-14T02:26:06.390Z,7.88
2019-05-14T02:28:37.497Z,7.85
2019-05-14T02:31:09.397Z,7.77
2019-05-14T02:33:41.531Z,7.77
2019-05-14T02:36:14.125Z,7.75
2019-05-14T02:38:45.279Z,7.72
2019-05-14T02:41:19.647Z,7.66
2019-05-14T02:43:51.013Z,7.64
2019-05-14T02:46:22.293Z,7.58
2019-05-14T02:48:53.422Z,7.53
2019-05-14T02:51:24.450Z,7.52
2019-05-14T02:53:55.543Z,7.50
2019-05-14T02:56:29.331Z,7.45
2019-05-14T02:59:01.290Z,7.44
2019-05-14T03:01:32.213Z,7.42
2019-05-14T03:04:03.551Z,7.42
2019-05-14T03:06:39.282Z,7.42
2019-05-14T03:09:09.687Z,7.33
2019-05-14T03:11:41.111Z,7.34
2019-05-14T03:14:12.297Z,7.37
2019-05-14T03:16:49.280Z,7.37
2019-05-14T03:19:19.825Z,7.45
2019-05-14T03:21:50.952Z,7.70
2019-05-14T03:24:22.870Z,8.08
2019-05-14T03:26:53.969Z,8.40
2019-05-14T03:29:30.329Z,8.62
2019-05-14T03:32:03.146Z,8.89
2019-05-14T03:34:33.665Z,9.06
2019-05-14T03:37:05.040Z,9.16
2019-05-14T03:39:39.728Z,9.50
2019-05-14T03:42:10.946Z,9.79
2019-05-14T03:44:42.020Z,10.05
2019-05-14T03:47:20.283Z,10.14
2019-05-14T03:49:49.864Z,10.20
2019-05-14T03:52:21.225Z,10.29
2019-05-14T03:54:53.885Z,10.48
2019-05-14T03:57:29.164Z,10.35
2019-05-14T04:00:00.188Z,10.28
2019-05-14T04:02:33.126Z,10.84
2019-05-14T04:05:09.353Z,10.84
2019-05-14T04:11:34.970Z,10.87
2019-05-14T04:14:09.574Z,11.25
2019-05-14T04:16:59.549Z,11.35
2019-05-14T04:19:18.832Z,11.14
2019-05-14T04:21:51.689Z,11.67
2019-05-14T04:24:24.049Z,11.86
2019-05-14T04:27:06.809Z,11.76
2019-05-14T04:29:30.897Z,11.99
2019-05-14T04:32:03.550Z,12.25
2019-05-14T04:34:34.846Z,11.80
2019-05-14T04:37:12.908Z,12.03
2019-05-14T04:43:41.458Z,12.01
2019-05-14T04:46:13.988Z,12.10
2019-05-14T04:48:50.062Z,12.31
2019-05-14T04:51:20.827Z,12.64
2019-05-14T04:53:53.356Z,12.61
2019-05-14T04:56:31.430Z,12.79
2019-05-14T04:59:04.396Z,12.72
2019-05-14T05:01:35.436Z,12.07
2019-05-14T05:04:09.373Z,11.65
2019-05-14T05:06:40.711Z,11.69
2019-05-14T05:09:14.994Z,11.94
2019-05-14T05:11:52.284Z,12.11
2019-05-14T05:14:23.991Z,12.00
2019-05-14T05:16:59.720Z,11.77
2019-05-14T05:19:31.101Z,11.26
2019-05-14T05:22:02.134Z,11.01
2019-05-14T05:24:33.235Z,11.02
2019-05-14T05:27:09.306Z,11.41
2019-05-14T05:29:53.351Z,11.82
2019-05-14T05:32:30.036Z,11.81
2019-05-14T05:35:03.110Z,11.86
2019-05-14T05:37:38.454Z,11.76
2019-05-14T05:40:09.879Z,10.99
2019-05-14T05:42:40.931Z,11.16
2019-05-14T05:45:13.010Z,11.35
2019-05-14T05:47:55.311Z,11.79
2019-05-14T05:50:20.281Z,11.30
2019-05-14T05:52:53.800Z,10.84
2019-05-14T05:55:24.211Z,11.62
2019-05-14T05:57:58.814Z,11.85
2019-05-14T06:00:44.913Z,11.72
2019-05-14T06:03:15.978Z,11.61
2019-05-14T06:05:49.389Z,11.70
2019-05-14T06:08:21.216Z,11.72
2019-05-14T06:10:54.629Z,11.82
2019-05-14T06:13:28.833Z,11.96
2019-05-14T06:16:00.012Z,11.81
2019-05-14T06:18:34.191Z,11.92
2019-05-14T06:21:03.897Z,11.83
2019-05-14T06:23:38.554Z,11.54
2019-05-14T06:26:11.849Z,11.51
2019-05-14T06:28:42.997Z,11.33
2019-05-14T06:31:18.962Z,11.89
2019-05-14T06:33:50.038Z,11.15
2019-05-14T06:36:21.165Z,11.57
2019-05-14T06:38:52.268Z,11.43
2019-05-14T06:41:23.461Z,11.38
2019-05-14T06:43:54.898Z,11.37
2019-05-14T06:46:28.287Z,12.01
2019-05-14T06:48:59.240Z,11.97
2019-05-14T06:51:31.495Z,11.50
2019-05-14T06:54:09.316Z,11.21
2019-05-14T06:56:41.307Z,11.26
2019-05-14T06:59:13.377Z,11.45
2019-05-14T07:01:44.473Z,11.62
2019-05-14T07:04:18.053Z,11.38
2019-05-14T07:06:49.942Z,11.13
2019-05-14T07:09:25.496Z,10.92
2019-05-14T07:12:01.339Z,10.96
2019-05-14T07:14:32.999Z,11.14
2019-05-14T07:17:04.666Z,10.73
2019-05-14T07:19:38.298Z,10.99
2019-05-14T07:22:09.098Z,11.13
2019-05-14T07:24:42.673Z,11.21
2019-05-14T07:27:14.691Z,11.31
2019-05-14T07:29:49.407Z,11.09
2019-05-14T07:32:21.746Z,11.35
2019-05-14T07:34:54.303Z,11.43
2019-05-14T07:37:25.390Z,11.50
2019-05-14T07:39:57.995Z,11.62
2019-05-14T07:42:30.122Z,11.49
2019-05-14T07:45:01.344Z,11.62
2019-05-14T07:47:49.351Z,11.78
2019-05-14T07:50:30.277Z,11.49
2019-05-14T07:53:08.982Z,11.10
2019-05-14T07:55:49.043Z,10.90
2019-05-14T07:58:23.567Z,11.24
2019-05-14T08:00:58.574Z,11.45
2019-05-14T08:03:32.537Z,11.11
2019-05-14T08:06:11.463Z,11.05
2019-05-14T08:12:40.233Z,11.11
2019-05-14T08:16:13.825Z,11.18
2019-05-14T08:18:53.046Z,11.37
2019-05-14T08:21:48.100Z,11.15
2019-05-14T08:28:35.131Z,11.37
2019-05-14T08:31:21.161Z,11.47
2019-05-14T08:33:54.919Z,11.40
2019-05-14T08:36:26.072Z,11.46
2019-05-14T08:39:00.375Z,11.34
2019-05-14T08:44:42.111Z,11.04
2019-05-14T08:47:25.997Z,10.87
2019-05-14T08:50:21.569Z,11.15
2019-05-14T08:55:38.579Z,11.06
2019-05-14T08:58:19.893Z,11.23
2019-05-14T09:00:42.807Z,11.32
2019-05-14T09:03:14.122Z,11.59
2019-05-14T09:05:45.459Z,11.25
2019-05-14T09:08:18.952Z,10.87
2019-05-14T09:10:51.257Z,10.94
2019-05-14T09:13:23.837Z,10.70
2019-05-14T09:15:55.080Z,10.71
2019-05-14T09:18:30.402Z,10.83
2019-05-14T09:21:01.589Z,10.67
2019-05-14T09:23:33.991Z,10.91
2019-05-14T09:26:05.981Z,10.85
2019-05-14T09:28:39.545Z,10.85
2019-05-14T09:31:10.861Z,10.99
2019-05-14T09:33:41.983Z,11.10
2019-05-14T09:36:24.141Z,11.18
2019-05-14T09:38:58.342Z,11.00
2019-05-14T09:41:31.303Z,10.60
2019-05-14T09:44:13.393Z,10.52
2019-05-14T09:46:45.380Z,10.88
2019-05-14T09:49:22.844Z,11.12
2019-05-14T09:51:54.961Z,10.76
2019-05-14T09:54:28.790Z,10.85
2019-05-14T09:57:00.081Z,10.90
2019-05-14T09:59:31.181Z,10.98
2019-05-14T10:02:02.479Z,11.05
2019-05-14T10:04:35.439Z,10.91
2019-05-14T10:07:10.558Z,11.10
2019-05-14T10:09:43.709Z,11.09
2019-05-14T10:12:14.842Z,10.74
2019-05-14T10:14:49.077Z,10.76
2019-05-14T10:17:20.211Z,10.72
2019-05-14T10:19:52.777Z,10.78
2019-05-14T10:22:28.578Z,11.01
2019-05-14T10:25:09.087Z,11.15
2019-05-14T10:27:59.059Z,11.09
2019-05-14T10:30:31.759Z,11.13
2019-05-14T10:33:10.796Z,11.11
2019-05-14T10:35:39.084Z,11.28
2019-05-14T10:38:13.288Z,11.06
2019-05-14T10:40:50.264Z,10.92
2019-05-14T10:43:20.542Z,10.74
2019-05-14T10:45:52.784Z,10.53
2019-05-14T10:48:26.296Z,10.91
2019-05-14T10:51:03.317Z,10.93
2019-05-14T10:53:35.690Z,11.07
2019-05-14T10:56:09.801Z,11.25
2019-05-14T10:58:41.016Z,11.13
2019-05-14T11:01:15.457Z,11.26
2019-05-14T11:03:48.413Z,11.32
2019-05-14T11:06:19.619Z,11.49
2019-05-14T11:08:53.154Z,11.51
2019-05-14T11:11:29.061Z,10.98
2019-05-14T11:14:03.196Z,11.02
2019-05-14T11:16:41.459Z,11.26
2019-05-14T11:19:09.643Z,11.38
2019-05-14T11:21:52.875Z,11.32
2019-05-14T11:24:29.699Z,11.39
2019-05-14T11:27:07.994Z,11.08
2019-05-14T11:29:50.327Z,11.21
2019-05-14T11:32:24.927Z,11.23
2019-05-14T11:34:59.170Z,10.95
2019-05-14T11:37:31.338Z,11.10
2019-05-14T11:40:11.308Z,11.18
2019-05-14T11:43:39.024Z,11.25
2019-05-14T11:46:47.736Z,11.41
2019-05-14T11:49:10.323Z,11.12
2019-05-14T11:52:06.157Z,10.56
2019-05-14T11:54:42.985Z,10.74
2019-05-14T12:01:10.855Z,11.22
2019-05-14T12:10:42.865Z,10.64
2019-05-14T12:13:14.504Z,10.79
2019-05-14T12:15:51.292Z,10.69
2019-05-14T12:18:21.072Z,10.68
2019-05-14T12:24:31.837Z,10.84
2019-05-14T12:27:28.620Z,10.89
2019-05-14T12:29:44.606Z,10.86
2019-05-14T12:32:34.788Z,10.96
2019-05-14T13:04:20.107Z,10.88
2019-05-14T13:29:13.960Z,10.70
2019-05-14T14:12:40.541Z,10.75
2019-05-14T14:45:21.753Z,10.52
2019-05-14T15:45:15.234Z,10.38
2019-05-14T16:02:00.004Z,10.42
2019-05-14T16:04:38.809Z,10.51
2019-05-14T16:11:56.330Z,10.51
2019-05-14T16:13:42.821Z,10.48
2019-05-14T16:23:18.791Z,10.46
2019-05-14T16:26:11.324Z,10.36
2019-05-14T16:32:19.203Z,10.41
2019-05-14T16:38:48.166Z,10.33
2019-05-14T17:03:12.618Z,9.92
2019-05-14T17:09:49.297Z,9.94
2019-05-14T17:12:23.199Z,9.94
2019-05-14T17:14:54.331Z,9.87
2019-05-14T17:17:33.047Z,9.80
2019-05-14T17:24:11.557Z,9.84
2019-05-14T17:26:49.588Z,9.90
2019-05-14T17:29:21.691Z,9.86
2019-05-14T17:31:54.235Z,9.80
2019-05-14T17:34:30.234Z,9.78
2019-05-14T17:37:02.930Z,9.76
2019-05-14T17:39:38.733Z,9.60
2019-05-14T17:42:12.739Z,9.52
2019-05-14T17:44:43.930Z,9.75
2019-05-14T17:47:15.096Z,9.73
2019-05-14T17:49:50.000Z,9.70
2019-05-14T17:52:33.265Z,9.71
2019-05-14T18:39:21.250Z,9.33
2019-05-14T18:42:19.842Z,9.26
2019-05-14T18:44:49.811Z,9.23
2019-05-14T18:58:26.189Z,9.23
2019-05-14T19:01:15.884Z,9.24
2019-05-14T19:07:48.816Z,9.21
2019-05-14T19:14:15.153Z,9.14
2019-05-14T19:24:22.120Z,9.02
2019-05-14T19:26:53.301Z,9.12
2019-05-14T19:29:24.534Z,9.19
2019-05-14T19:31:59.359Z,9.22
2019-05-14T19:34:30.596Z,9.19
2019-05-14T19:37:04.491Z,9.19
2019-05-14T19:39:42.593Z,9.18
2019-05-14T19:42:22.422Z,9.20
2019-05-14T19:44:53.662Z,9.12
2019-05-14T19:47:25.395Z,9.19
2019-05-14T19:50:00.009Z,9.20
2019-05-14T19:52:39.566Z,9.12
2019-05-14T19:55:15.880Z,9.12
2019-05-14T20:01:50.816Z,9.05
2019-05-14T20:04:29.407Z,9.02
2019-05-14T20:15:27.578Z,8.91
2019-05-14T20:18:01.661Z,9.09
2019-05-14T20:20:32.838Z,8.99
2019-05-14T20:23:03.880Z,9.07
2019-05-14T20:25:36.009Z,9.11
2019-05-14T20:28:08.775Z,9.15
2019-05-14T20:30:39.998Z,9.13
2019-05-14T20:33:12.694Z,9.21
2019-05-14T20:35:44.111Z,9.20
2019-05-14T20:38:15.246Z,9.24
2019-05-14T20:40:48.489Z,9.24
2019-05-14T20:43:21.672Z,9.31
2019-05-14T20:45:53.579Z,9.23
2019-05-14T20:48:24.626Z,9.21
2019-05-14T20:50:57.858Z,9.18
2019-05-14T20:53:30.074Z,9.15
2019-05-14T20:56:01.215Z,9.18
2019-05-14T20:58:32.248Z,9.07
2019-05-14T21:01:11.118Z,9.06
2019-05-14T21:03:40.521Z,9.00
2019-05-14T21:06:11.666Z,9.09
2019-05-14T21:08:43.121Z,8.97
2019-05-14T21:11:19.061Z,8.90
2019-05-14T21:13:50.310Z,8.99
2019-05-14T21:16:21.626Z,9.05
2019-05-14T21:18:52.744Z,9.12
2019-05-14T21:21:23.784Z,9.05
2019-05-14T21:23:58.486Z,8.92
2019-05-14T21:26:29.375Z,8.88
2019-05-14T21:29:00.449Z,8.90
2019-05-14T21:31:32.365Z,8.92
2019-05-14T21:34:05.041Z,8.86
2019-05-14T21:36:36.203Z,9.03
2019-05-14T21:39:10.514Z,9.10
2019-05-14T21:41:44.563Z,9.11
2019-05-14T21:44:18.806Z,9.05
2019-05-14T21:46:50.823Z,9.15
2019-05-14T21:49:21.973Z,9.10
2019-05-14T21:51:53.039Z,9.13
2019-05-14T21:54:24.153Z,9.20
2019-05-14T21:56:55.317Z,9.12
2019-05-14T21:59:28.079Z,9.18
2019-05-14T22:06:19.857Z,9.13
2019-05-14T22:08:50.930Z,9.06
2019-05-14T22:11:28.206Z,9.20
2019-05-14T22:13:59.443Z,9.11
2019-05-14T22:16:30.769Z,9.19
2019-05-14T22:19:01.804Z,9.13
2019-05-14T22:21:33.090Z,9.09
2019-05-14T22:24:05.841Z,9.12
2019-05-14T22:26:38.869Z,9.14
2019-05-14T22:29:10.017Z,9.15
2019-05-14T22:31:41.091Z,9.16
2019-05-14T22:34:12.115Z,9.18
2019-05-14T22:36:43.369Z,9.16
2019-05-14T22:39:19.794Z,9.12
2019-05-14T22:41:48.870Z,9.13
2019-05-14T22:44:21.478Z,8.95
2019-05-14T22:46:52.522Z,9.06
2019-05-14T22:49:23.591Z,9.10
2019-05-14T22:51:55.554Z,9.08
2019-05-14T22:54:29.168Z,9.10
2019-05-14T22:57:02.710Z,9.02
2019-05-14T22:59:33.853Z,9.10
2019-05-14T23:02:04.935Z,9.04
2019-05-14T23:04:38.459Z,8.97
2019-05-14T23:07:10.550Z,9.04
2019-05-14T23:09:41.641Z,9.02
2019-05-14T23:12:13.295Z,9.00
2019-05-14T23:14:44.376Z,8.98
2019-05-14T23:17:15.595Z,9.00
2019-05-14T23:19:49.772Z,9.09
2019-05-14T23:22:24.699Z,9.04
2019-05-14T23:24:59.206Z,9.02
2019-05-14T23:27:30.077Z,9.07
2019-05-14T23:30:01.978Z,9.08
2019-05-14T23:32:33.095Z,9.08
2019-05-14T23:35:05.647Z,9.04
2019-05-14T23:37:38.321Z,8.95
2019-05-14T23:40:09.430Z,8.99
2019-05-14T23:42:40.558Z,8.99
2019-05-14T23:45:11.698Z,8.97
2019-05-14T23:47:42.812Z,9.08
2019-05-14T23:50:19.714Z,9.13
2019-05-14T23:52:50.826Z,9.18
2019-05-14T23:55:21.828Z,9.20
2019-05-14T23:57:52.949Z,9.24
